Time;durP1;ratioP1;P1;durP2;ratioP2;P2;SDS_P1;SDS_P2;PMS_P1;PMS_P2;Temp;Humidity;BMP_temperature;BMP_pressure;BME280_temperature;BME280_humidity;BME280_pressure;Samples;Min_cycle;Max_cycle;Signal;HPM_P1;HPM_P2
2021/04/25 00:01:24;;;;;;;12.52;5.70;;;9.40;85.70;;;;;;5015726;28;20108;-84
2021/04/25 00:03:50;;;;;;;7.70;5.22;;;9.50;85.80;;;;;;5015417;28;20032;-83
2021/04/25 00:06:15;;;;;;;10.70;5.32;;;9.60;85.90;;;;;;5033091;28;20057;-83
2021/04/25 00:08:41;;;;;;;13.38;5.88;;;9.60;85.70;;;;;;5033084;28;20503;-83
2021/04/25 00:11:07;;;;;;;11.15;5.55;;;9.60;84.90;;;;;;5015318;28;20060;-83
2021/04/25 00:13:33;;;;;;;9.35;5.10;;;9.60;85.10;;;;;;5033017;28;20444;-83
2021/04/25 00:15:59;;;;;;;11.13;5.10;;;9.60;85.80;;;;;;5015830;28;20033;-83
2021/04/25 00:18:25;;;;;;;11.93;5.13;;;9.90;84.70;;;;;;5015325;28;20473;-83
2021/04/25 00:20:51;;;;;;;9.25;4.80;;;9.70;84.30;;;;;;5033029;28;20041;-83
2021/04/25 00:23:17;;;;;;;13.57;5.10;;;9.60;85.30;;;;;;5033224;28;20366;-83
2021/04/25 00:25:43;;;;;;;9.90;5.15;;;9.50;86.40;;;;;;5032964;28;20025;-83
2021/04/25 00:28:09;;;;;;;9.63;4.60;;;9.40;86.10;;;;;;5015185;28;20037;-83
2021/04/25 00:30:35;;;;;;;10.13;5.45;;;9.60;86.40;;;;;;5033131;28;20033;-83
2021/04/25 00:33:00;;;;;;;10.27;5.03;;;9.50;86.30;;;;;;5032900;28;20049;-83
2021/04/25 00:35:27;;;;;;;12.32;5.45;;;9.50;86.80;;;;;;5032812;28;20402;-83
2021/04/25 00:37:52;;;;;;;9.38;4.80;;;9.50;87.10;;;;;;5033042;28;20366;-83
2021/04/25 00:40:19;;;;;;;9.75;4.95;;;9.50;87.00;;;;;;5032821;28;20071;-83
2021/04/25 00:42:45;;;;;;;9.50;5.60;;;9.40;86.80;;;;;;5032839;28;20071;-83
2021/04/25 00:45:14;;;;;;;10.27;4.88;;;9.30;87.10;;;;;;5032437;28;20215;-83
2021/04/25 00:47:45;;;;;;;10.25;5.10;;;9.30;87.40;;;;;;5015018;28;20064;-83
2021/04/25 00:50:13;;;;;;;10.70;4.80;;;9.30;87.80;;;;;;5017008;28;20017;-83
2021/04/25 00:52:45;;;;;;;10.10;5.65;;;9.40;88.20;;;;;;5036390;28;20032;-83
2021/04/25 00:55:13;;;;;;;9.88;4.88;;;9.30;87.90;;;;;;5036612;28;20036;-83
2021/04/25 00:57:40;;;;;;;10.75;5.20;;;9.30;88.40;;;;;;5018542;28;20026;-83
2021/04/25 01:00:08;;;;;;;12.88;4.75;;;9.20;88.60;;;;;;5018496;28;20029;-83
2021/04/25 01:02:35;;;;;;;8.23;4.68;;;9.30;88.80;;;;;;5036065;28;20163;-83
2021/04/25 01:05:01;;;;;;;8.65;4.72;;;9.30;88.40;;;;;;5036386;28;20025;-83
2021/04/25 01:07:26;;;;;;;7.68;4.70;;;9.40;88.60;;;;;;5018305;28;20057;-83
2021/04/25 01:09:52;;;;;;;10.35;5.15;;;9.40;88.30;;;;;;5018308;28;20107;-83
2021/04/25 01:12:18;;;;;;;12.05;5.72;;;9.20;88.80;;;;;;5018119;28;20377;-83
2021/04/25 01:14:44;;;;;;;11.63;5.22;;;9.10;89.20;;;;;;5018201;28;20033;-83
2021/04/25 01:17:09;;;;;;;8.13;4.57;;;9.20;89.40;;;;;;5018218;28;20493;-83
2021/04/25 01:19:35;;;;;;;6.80;4.40;;;9.20;89.90;;;;;;5035872;28;20075;-83
2021/04/25 01:22:01;;;;;;;9.57;4.85;;;9.30;89.40;;;;;;5035829;28;20031;-83
2021/04/25 01:24:27;;;;;;;9.85;4.72;;;9.30;89.30;;;;;;5035763;28;20029;-83
2021/04/25 01:26:52;;;;;;;9.93;4.82;;;9.30;88.80;;;;;;5035775;28;20155;-83
2021/04/25 01:29:18;;;;;;;10.43;5.03;;;9.10;89.80;;;;;;5018018;28;20037;-83
2021/04/25 01:31:44;;;;;;;10.48;4.72;;;9.10;90.20;;;;;;5017797;28;20028;-83
2021/04/25 01:34:10;;;;;;;6.90;4.20;;;9.10;90.30;;;;;;5017887;28;20021;-83
2021/04/25 01:36:35;;;;;;;6.15;4.32;;;9.30;90.30;;;;;;5035577;28;20032;-83
2021/04/25 01:39:03;;;;;;;9.52;5.57;;;9.50;89.00;;;;;;5017757;28;20068;-83
2021/04/25 01:41:28;;;;;;;9.00;5.13;;;9.30;89.20;;;;;;5035452;28;20079;-83
2021/04/25 01:43:55;;;;;;;9.93;4.32;;;9.10;89.80;;;;;;5035442;28;20439;-83
2021/04/25 01:46:22;;;;;;;7.97;4.38;;;9.20;90.30;;;;;;5035259;28;20540;-83
2021/04/25 01:48:47;;;;;;;11.27;5.00;;;9.20;89.90;;;;;;5035320;28;20101;-83
2021/04/25 01:51:13;;;;;;;9.23;4.93;;;9.20;90.10;;;;;;5017476;28;20129;-83
2021/04/25 01:53:39;;;;;;;10.20;4.57;;;8.90;90.20;;;;;;5017516;28;20444;-83
2021/04/25 01:56:06;;;;;;;11.82;5.07;;;8.80;90.70;;;;;;5017539;28;20017;-83
2021/04/25 01:58:31;;;;;;;9.95;4.68;;;8.80;90.80;;;;;;5035478;28;20108;-83
2021/04/25 02:00:57;;;;;;;9.32;4.70;;;8.80;90.90;;;;;;5034421;28;20528;-83
2021/04/25 02:03:25;;;;;;;8.48;4.47;;;8.70;90.90;;;;;;5035079;28;20037;-83
2021/04/25 02:05:51;;;;;;;7.90;4.40;;;8.60;91.20;;;;;;5035292;28;20021;-83
2021/04/25 02:08:17;;;;;;;8.15;4.68;;;8.60;91.60;;;;;;5017230;28;20160;-83
2021/04/25 02:10:44;;;;;;;8.80;4.53;;;8.70;91.40;;;;;;5017108;28;20030;-83
2021/04/25 02:13:10;;;;;;;10.15;4.50;;;8.70;91.30;;;;;;5035163;28;20014;-83
2021/04/25 02:15:36;;;;;;;9.88;4.97;;;8.80;91.20;;;;;;5034849;28;20029;-83
2021/04/25 02:18:02;;;;;;;8.70;4.60;;;8.80;91.00;;;;;;5035051;28;20034;-83
2021/04/25 02:20:29;;;;;;;10.50;4.70;;;8.90;91.00;;;;;;5017019;28;20025;-83
2021/04/25 02:22:56;;;;;;;12.13;5.22;;;8.80;91.40;;;;;;5016891;28;20029;-83
2021/04/25 02:25:23;;;;;;;9.02;4.28;;;8.90;91.10;;;;;;5035184;28;20021;-83
2021/04/25 02:27:49;;;;;;;10.75;4.93;;;8.60;91.20;;;;;;5016855;28;20036;-83
2021/04/25 02:30:21;;;;;;;14.98;5.55;;;8.60;91.90;;;;;;5034511;28;20021;-83
2021/04/25 02:32:47;;;;;;;10.40;5.05;;;8.50;91.50;;;;;;5034565;28;20105;-83
2021/04/25 02:35:14;;;;;;;11.57;5.47;;;8.40;91.80;;;;;;5034761;28;20031;-83
2021/04/25 02:37:42;;;;;;;7.63;5.18;;;8.40;91.70;;;;;;5034963;28;20018;-83
2021/04/25 02:40:10;;;;;;;10.70;4.88;;;8.30;92.10;;;;;;5016642;28;20022;-83
2021/04/25 02:42:36;;;;;;;9.27;4.65;;;8.30;92.40;;;;;;5016426;28;20474;-83
2021/04/25 02:45:03;;;;;;;9.00;4.53;;;8.40;92.20;;;;;;5016376;28;20418;-83
2021/04/25 02:47:29;;;;;;;8.90;4.97;;;8.40;91.80;;;;;;5034214;28;20033;-83
2021/04/25 02:49:55;;;;;;;9.13;3.97;;;8.40;92.00;;;;;;5034441;28;20025;-83
2021/04/25 02:52:25;;;;;;;12.23;5.15;;;8.30;92.00;;;;;;5034301;28;20116;-83
2021/04/25 02:54:55;;;;;;;7.70;4.43;;;8.30;91.70;;;;;;5016346;28;20143;-83
2021/04/25 02:57:21;;;;;;;8.93;4.45;;;8.50;92.50;;;;;;5016268;28;20021;-83
2021/04/25 02:59:47;;;;;;;8.07;4.63;;;8.40;91.80;;;;;;5034035;28;20496;-83
2021/04/25 03:02:13;;;;;;;10.82;5.38;;;8.30;91.70;;;;;;5034230;28;20151;-83
2021/04/25 03:04:38;;;;;;;8.00;4.30;;;8.40;91.80;;;;;;5034196;28;20025;-83
2021/04/25 03:07:04;;;;;;;8.13;4.55;;;8.20;92.10;;;;;;5016141;28;20396;-83
2021/04/25 03:09:30;;;;;;;7.70;4.28;;;8.20;93.10;;;;;;5016128;28;20057;-83
2021/04/25 03:11:56;;;;;;;8.90;4.45;;;8.20;92.50;;;;;;5033716;28;20029;-84
2021/04/25 03:14:21;;;;;;;7.03;4.38;;;8.40;92.50;;;;;;5032882;28;20508;-84
2021/04/25 03:16:47;;;;;;;7.93;4.10;;;8.10;92.20;;;;;;5034282;28;20488;-84
2021/04/25 03:19:13;;;;;;;13.75;4.28;;;8.10;92.60;;;;;;5016002;28;20029;-83
2021/04/25 03:21:39;;;;;;;7.88;4.55;;;8.30;92.60;;;;;;5015992;28;20028;-84
2021/04/25 03:24:05;;;;;;;7.05;4.40;;;8.40;92.50;;;;;;5033898;28;20026;-83
2021/04/25 03:26:31;;;;;;;8.95;4.95;;;8.30;91.70;;;;;;5033562;28;20025;-83
2021/04/25 03:28:56;;;;;;;8.32;4.63;;;7.80;92.10;;;;;;5015853;28;20022;-83
2021/04/25 03:31:22;;;;;;;8.57;3.92;;;7.80;92.90;;;;;;5033685;28;20037;-84
2021/04/25 03:33:48;;;;;;;6.53;4.10;;;7.60;93.20;;;;;;5033498;28;20025;-84
2021/04/25 03:36:14;;;;;;;8.38;4.30;;;7.70;93.70;;;;;;5033496;28;20100;-83
2021/04/25 03:38:39;;;;;;;10.75;4.85;;;8.30;93.50;;;;;;5033387;28;20026;-83
2021/04/25 03:41:05;;;;;;;7.40;4.45;;;8.00;92.70;;;;;;5033398;28;20025;-83
2021/04/25 03:43:31;;;;;;;6.53;4.07;;;7.70;92.70;;;;;;5033399;28;20025;-83
2021/04/25 03:45:56;;;;;;;8.63;4.60;;;7.60;93.70;;;;;;5015436;28;20109;-83
2021/04/25 03:48:23;;;;;;;11.15;4.53;;;7.50;93.20;;;;;;5015603;28;20041;-83
2021/04/25 03:50:48;;;;;;;7.28;4.22;;;7.70;93.90;;;;;;5015542;28;20028;-83
2021/04/25 03:53:14;;;;;;;8.98;4.47;;;7.70;93.60;;;;;;5033259;28;20026;-83
2021/04/25 03:55:40;;;;;;;11.75;4.80;;;7.50;94.00;;;;;;5015489;28;20018;-83
2021/04/25 03:58:06;;;;;;;7.55;4.47;;;8.10;93.20;;;;;;5015543;28;20045;-83
2021/04/25 04:00:31;;;;;;;6.82;4.35;;;8.00;93.00;;;;;;5033435;28;20029;-83
2021/04/25 04:02:57;;;;;;;8.23;4.32;;;7.80;93.60;;;;;;5033186;28;20483;-83
2021/04/25 04:05:23;;;;;;;7.30;4.40;;;7.50;93.60;;;;;;5033105;28;20022;-83
2021/04/25 04:07:49;;;;;;;6.45;4.00;;;7.30;94.40;;;;;;5033411;28;20022;-83
2021/04/25 04:10:15;;;;;;;7.57;4.10;;;7.50;94.60;;;;;;5033009;28;20028;-83
2021/04/25 04:12:41;;;;;;;9.70;4.90;;;8.30;93.50;;;;;;5033371;28;20036;-83
2021/04/25 04:15:08;;;;;;;7.45;4.13;;;8.30;92.70;;;;;;5033010;28;20052;-83
2021/04/25 04:17:34;;;;;;;7.68;4.05;;;8.30;92.80;;;;;;5015275;28;20024;-83
2021/04/25 04:20:00;;;;;;;6.97;3.85;;;8.50;93.10;;;;;;5015300;28;20018;-83
2021/04/25 04:22:25;;;;;;;5.57;4.00;;;8.60;92.30;;;;;;5032966;28;20033;-83
2021/04/25 04:24:51;;;;;;;10.00;4.15;;;8.40;92.50;;;;;;5016895;28;20493;-83
2021/04/25 04:27:17;;;;;;;9.43;4.90;;;8.30;92.90;;;;;;5037440;28;20104;-83
2021/04/25 04:29:42;;;;;;;8.20;4.10;;;8.10;92.20;;;;;;5036829;28;20477;-83
2021/04/25 04:32:08;;;;;;;10.85;4.43;;;8.10;93.80;;;;;;5036684;28;20029;-83
2021/04/25 04:34:33;;;;;;;6.65;3.90;;;8.10;92.60;;;;;;5019036;28;20033;-83
2021/04/25 04:36:59;;;;;;;7.32;4.40;;;8.00;93.30;;;;;;5018914;28;20025;-83
2021/04/25 04:39:25;;;;;;;9.85;4.75;;;8.00;93.60;;;;;;5018846;28;20030;-83
2021/04/25 04:41:51;;;;;;;9.20;4.93;;;7.90;92.80;;;;;;5036894;28;20032;-83
2021/04/25 04:44:17;;;;;;;8.70;4.72;;;7.90;92.80;;;;;;5036575;28;20599;-83
2021/04/25 04:46:43;;;;;;;9.65;4.10;;;7.70;93.30;;;;;;5036489;28;20049;-83
2021/04/25 04:49:09;;;;;;;9.73;4.47;;;7.60;94.40;;;;;;5036768;28;20497;-83
2021/04/25 04:51:34;;;;;;;9.65;4.45;;;8.00;93.80;;;;;;5018601;28;20028;-83
2021/04/25 04:54:00;;;;;;;10.27;4.90;;;7.90;93.70;;;;;;5018582;28;20401;-83
2021/04/25 04:56:26;;;;;;;7.93;4.25;;;7.90;93.50;;;;;;5036258;28;20018;-83
2021/04/25 04:58:52;;;;;;;7.55;4.85;;;7.80;93.20;;;;;;5018572;28;20404;-83
2021/04/25 05:01:18;;;;;;;8.25;4.40;;;7.40;93.70;;;;;;5036214;28;20026;-84
2021/04/25 05:03:43;;;;;;;9.82;5.15;;;7.30;94.30;;;;;;5036225;28;20129;-84
2021/04/25 05:06:09;;;;;;;10.95;4.18;;;7.40;94.50;;;;;;5036163;28;20454;-84
2021/04/25 05:08:35;;;;;;;10.68;5.43;;;7.70;94.80;;;;;;5018408;28;20520;-84
2021/04/25 05:11:01;;;;;;;6.22;4.35;;;7.80;93.80;;;;;;5018266;28;20026;-84
2021/04/25 05:13:26;;;;;;;8.77;4.85;;;7.80;94.00;;;;;;5018222;28;20032;-83
2021/04/25 05:15:52;;;;;;;14.73;6.20;;;7.80;94.00;;;;;;5036241;28;20082;-84
2021/04/25 05:18:18;;;;;;;10.93;4.75;;;7.60;93.90;;;;;;5018157;28;20029;-84
2021/04/25 05:20:44;;;;;;;10.50;6.03;;;7.70;94.30;;;;;;5036180;28;20068;-84
2021/04/25 05:23:10;;;;;;;10.07;7.15;;;7.50;94.50;;;;;;5018148;28;20033;-84
2021/04/25 05:25:35;;;;;;;9.73;5.45;;;7.50;95.00;;;;;;5018141;28;20028;-84
2021/04/25 05:28:01;;;;;;;9.18;4.60;;;7.90;94.60;;;;;;5035774;28;20033;-84
2021/04/25 05:30:27;;;;;;;9.23;4.88;;;8.10;94.10;;;;;;5035641;28;20374;-84
2021/04/25 05:32:52;;;;;;;11.02;4.75;;;8.10;93.80;;;;;;5017927;28;20033;-84
2021/04/25 05:35:18;;;;;;;8.57;4.53;;;7.80;94.50;;;;;;5035311;28;20025;-84
2021/04/25 05:37:44;;;;;;;9.88;5.63;;;7.60;94.90;;;;;;5034783;28;20017;-84
2021/04/25 05:40:12;;;;;;;10.02;4.97;;;7.70;95.10;;;;;;5017794;28;20057;-84
2021/04/25 05:42:38;;;;;;;12.35;5.78;;;7.80;94.90;;;;;;5035810;28;20021;-84
2021/04/25 05:45:05;;;;;;;11.43;5.57;;;7.90;95.00;;;;;;5017477;28;20049;-84
2021/04/25 05:47:31;;;;;;;7.50;4.63;;;8.00;95.00;;;;;;5035400;28;20052;-84
2021/04/25 05:49:57;;;;;;;7.82;4.72;;;8.30;94.80;;;;;;5035632;28;20068;-84
2021/04/25 05:52:22;;;;;;;10.50;5.10;;;8.40;94.10;;;;;;5017479;28;20488;-84
2021/04/25 05:54:48;;;;;;;8.38;5.70;;;8.60;93.90;;;;;;5035226;28;20432;-84
2021/04/25 05:57:14;;;;;;;12.70;5.10;;;8.20;94.50;;;;;;5017454;28;20024;-84
2021/04/25 05:59:39;;;;;;;9.00;4.63;;;8.00;95.20;;;;;;5017361;28;20025;-83
2021/04/25 06:02:06;;;;;;;7.63;4.88;;;8.20;95.30;;;;;;5035212;28;20082;-83
2021/04/25 06:04:32;;;;;;;12.30;5.15;;;8.70;94.50;;;;;;5035110;28;20392;-84
2021/04/25 06:06:58;;;;;;;11.35;5.20;;;8.80;94.40;;;;;;5017338;28;20040;-83
2021/04/25 06:09:24;;;;;;;9.80;5.85;;;8.70;94.50;;;;;;5017299;28;20021;-83
2021/04/25 06:11:51;;;;;;;11.10;5.50;;;8.70;94.70;;;;;;5034858;28;20026;-83
2021/04/25 06:14:18;;;;;;;12.20;5.55;;;8.70;94.80;;;;;;5034928;28;20033;-84
2021/04/25 06:16:43;;;;;;;9.23;5.15;;;8.70;94.90;;;;;;5035150;28;20022;-83
2021/04/25 06:19:09;;;;;;;13.73;6.22;;;8.80;95.00;;;;;;5034802;28;20091;-84
2021/04/25 06:21:35;;;;;;;14.95;6.13;;;8.90;95.00;;;;;;5017064;28;20493;-84
2021/04/25 06:24:01;;;;;;;11.90;5.97;;;9.20;94.70;;;;;;5016914;28;20492;-84
2021/04/25 06:26:26;;;;;;;10.38;5.65;;;9.20;94.60;;;;;;5034954;28;20030;-83
2021/04/25 06:28:52;;;;;;;11.77;6.15;;;9.30;94.50;;;;;;5016894;28;20112;-83
2021/04/25 06:31:18;;;;;;;12.50;6.15;;;9.30;94.70;;;;;;5016741;28;20032;-83
2021/04/25 06:33:45;;;;;;;10.35;5.70;;;9.50;94.70;;;;;;5016651;28;20025;-83
2021/04/25 06:36:12;;;;;;;11.55;5.68;;;9.60;94.30;;;;;;5034495;28;20071;-83
2021/04/25 06:38:38;;;;;;;11.18;6.05;;;9.70;94.30;;;;;;5034374;28;20478;-83
2021/04/25 06:41:04;;;;;;;12.18;6.70;;;9.60;94.20;;;;;;5016650;28;20116;-83
2021/04/25 06:43:31;;;;;;;9.90;6.32;;;9.70;94.50;;;;;;5016571;28;20026;-83
2021/04/25 06:45:58;;;;;;;10.70;6.63;;;9.70;94.50;;;;;;5016335;28;20144;-83
2021/04/25 06:48:23;;;;;;;10.18;6.03;;;9.70;94.70;;;;;;5034042;28;20029;-83
2021/04/25 06:50:49;;;;;;;11.65;6.13;;;9.80;94.50;;;;;;5016388;28;20036;-83
2021/04/25 06:53:15;;;;;;;11.63;6.38;;;9.80;94.40;;;;;;5016421;28;20489;-83
2021/04/25 06:55:41;;;;;;;11.98;6.53;;;9.80;94.50;;;;;;5016428;28;20385;-83
2021/04/25 06:58:07;;;;;;;18.67;6.35;;;10.00;94.60;;;;;;5034092;28;20021;-83
2021/04/25 07:00:32;;;;;;;14.05;6.68;;;10.10;94.40;;;;;;5034298;28;20112;-84
2021/04/25 07:02:58;;;;;;;10.07;6.70;;;10.10;94.40;;;;;;5034003;28;20028;-84
2021/04/25 07:05:25;;;;;;;14.30;7.25;;;10.20;94.30;;;;;;5033913;28;20022;-84
2021/04/25 07:07:51;;;;;;;12.48;6.35;;;10.30;94.00;;;;;;5033950;28;20028;-84
2021/04/25 07:10:17;;;;;;;13.80;7.40;;;10.50;93.70;;;;;;5033874;28;20026;-84
2021/04/25 07:12:43;;;;;;;11.43;6.35;;;10.40;93.60;;;;;;5016011;28;20070;-84
2021/04/25 07:15:10;;;;;;;12.73;6.57;;;10.50;93.60;;;;;;5016030;28;20485;-85
2021/04/25 07:17:36;;;;;;;9.70;5.72;;;10.30;94.00;;;;;;5015999;28;20018;-84
2021/04/25 07:20:04;;;;;;;13.23;7.18;;;10.50;93.70;;;;;;5015954;28;20239;-85
2021/04/25 07:22:30;;;;;;;15.40;7.72;;;10.60;93.70;;;;;;5033932;28;20018;-84
2021/04/25 07:24:56;;;;;;;11.05;7.22;;;10.80;93.60;;;;;;5015832;28;20048;-85
2021/04/25 07:27:21;;;;;;;13.15;7.28;;;10.70;93.70;;;;;;5015876;28;20366;-85
2021/04/25 07:29:48;;;;;;;12.57;7.75;;;10.90;93.40;;;;;;5015703;28;20036;-84
2021/04/25 07:32:14;;;;;;;13.13;7.35;;;11.00;93.50;;;;;;5015646;28;20543;-84
2021/04/25 07:34:39;;;;;;;15.27;7.75;;;11.00;93.50;;;;;;5015943;28;20025;-84
2021/04/25 07:37:05;;;;;;;12.40;7.15;;;10.80;93.70;;;;;;5016281;28;20026;-84
2021/04/25 07:39:33;;;;;;;14.98;7.25;;;10.70;94.10;;;;;;5015493;28;20497;-84
2021/04/25 07:41:59;;;;;;;13.90;7.18;;;10.90;94.30;;;;;;5015634;28;20025;-84
2021/04/25 07:44:25;;;;;;;15.02;6.75;;;11.10;93.60;;;;;;5033314;28;20021;-84
2021/04/25 07:46:51;;;;;;;15.35;7.35;;;11.00;94.20;;;;;;5033320;28;20515;-85
2021/04/25 07:49:17;;;;;;;15.80;7.90;;;11.20;93.60;;;;;;5033227;28;20053;-84
2021/04/25 07:51:43;;;;;;;15.98;8.27;;;11.30;93.50;;;;;;5015286;28;20124;-85
2021/04/25 07:54:08;;;;;;;14.50;8.18;;;11.30;93.70;;;;;;5015278;28;20117;-84
2021/04/25 07:56:34;;;;;;;20.00;9.15;;;11.50;93.20;;;;;;5015398;28;20033;-84
2021/04/25 07:59:00;;;;;;;16.20;8.35;;;11.70;93.00;;;;;;5016871;28;20029;-84
2021/04/25 08:01:27;;;;;;;14.88;7.47;;;11.70;93.00;;;;;;5021928;28;20392;-85
2021/04/25 08:03:53;;;;;;;13.38;7.60;;;11.80;92.80;;;;;;5039729;28;20506;-84
2021/04/25 08:06:19;;;;;;;15.13;8.57;;;12.00;92.40;;;;;;5039714;28;20026;-85
2021/04/25 08:08:45;;;;;;;14.52;8.43;;;12.00;92.50;;;;;;5022008;28;20392;-85
2021/04/25 08:11:11;;;;;;;15.55;8.88;;;12.00;92.50;;;;;;5039924;28;20051;-85
2021/04/25 08:13:36;;;;;;;10.43;7.40;;;12.10;92.50;;;;;;5021968;28;20025;-84
2021/04/25 08:16:03;;;;;;;18.92;8.88;;;12.30;92.50;;;;;;5040158;28;20025;-85
2021/04/25 08:18:28;;;;;;;15.35;7.82;;;12.40;91.80;;;;;;5039654;28;20028;-84
2021/04/25 08:20:54;;;;;;;16.85;8.38;;;12.40;91.70;;;;;;5039653;28;20025;-85
2021/04/25 08:23:20;;;;;;;18.98;8.32;;;12.50;91.70;;;;;;5039612;28;20021;-84
2021/04/25 08:25:46;;;;;;;15.52;7.78;;;12.30;91.90;;;;;;5039880;28;20527;-85
2021/04/25 08:28:12;;;;;;;15.38;8.65;;;12.60;91.60;;;;;;5021834;28;20039;-85
2021/04/25 08:30:38;;;;;;;20.27;9.60;;;12.60;91.00;;;;;;5021721;28;20401;-84
2021/04/25 08:33:03;;;;;;;18.85;8.48;;;12.70;90.60;;;;;;5021712;28;20025;-84
2021/04/25 08:35:29;;;;;;;17.48;7.93;;;13.00;90.90;;;;;;5021893;28;20035;-84
2021/04/25 08:37:55;;;;;;;15.07;8.57;;;13.00;90.20;;;;;;5039351;28;20030;-85
2021/04/25 08:40:21;;;;;;;15.15;8.60;;;13.10;90.50;;;;;;5039447;28;20021;-85
2021/04/25 08:42:47;;;;;;;16.98;7.93;;;13.10;90.30;;;;;;5021935;28;20026;-85
2021/04/25 08:45:15;;;;;;;15.43;7.15;;;13.10;90.30;;;;;;5018139;28;20068;-85
2021/04/25 08:47:50;;;;;;;17.33;9.00;;;13.30;90.00;;;;;;5018248;28;20037;-85
2021/04/25 08:50:16;;;;;;;12.32;7.60;;;13.20;88.70;;;;;;5018304;28;20124;-85
2021/04/25 08:52:43;;;;;;;17.25;8.45;;;13.30;89.10;;;;;;5018134;28;20121;-85
2021/04/25 08:55:11;;;;;;;13.23;7.80;;;13.30;89.10;;;;;;5018235;28;20053;-86
2021/04/25 08:57:36;;;;;;;12.95;8.57;;;13.70;88.10;;;;;;5018307;28;20044;-85
2021/04/25 09:00:04;;;;;;;17.25;8.63;;;13.70;86.70;;;;;;5019624;28;20029;-85
2021/04/25 09:02:30;;;;;;;15.80;8.50;;;13.70;87.00;;;;;;5018696;28;20030;-85
2021/04/25 09:04:57;;;;;;;15.18;8.73;;;14.00;86.90;;;;;;5018459;28;20026;-84
2021/04/25 09:07:24;;;;;;;15.82;8.23;;;14.20;86.00;;;;;;5018058;28;20163;-86
2021/04/25 09:10:00;;;;;;;15.25;7.60;;;14.30;85.20;;;;;;5018146;28;20049;-85
2021/04/25 09:12:39;;;;;;;13.07;7.63;;;14.40;84.30;;;;;;5016259;28;20026;-84
2021/04/25 09:15:26;;;;;;;14.95;7.68;;;14.60;83.20;;;;;;5015017;28;20029;-84
2021/04/25 09:17:53;;;;;;;15.50;9.23;;;14.70;83.20;;;;;;5014992;28;20037;-85
2021/04/25 09:20:30;;;;;;;17.75;8.23;;;14.70;84.30;;;;;;5014942;28;20026;-85
2021/04/25 09:22:56;;;;;;;15.35;7.95;;;14.70;83.30;;;;;;5014834;28;20080;-84
2021/04/25 09:25:22;;;;;;;18.92;8.55;;;15.00;81.30;;;;;;5016150;28;20030;-85
2021/04/25 09:27:48;;;;;;;17.80;8.32;;;15.20;82.00;;;;;;5014785;28;20022;-85
2021/04/25 09:30:23;;;;;;;15.07;8.40;;;15.30;80.70;;;;;;5016037;28;20077;-85
2021/04/25 09:32:59;;;;;;;12.93;6.70;;;15.20;80.50;;;;;;5014616;28;20026;-85
2021/04/25 09:35:26;;;;;;;18.70;7.93;;;15.10;81.20;;;;;;5014724;28;20022;-85
2021/04/25 09:37:51;;;;;;;12.68;7.47;;;15.20;80.40;;;;;;5016463;28;20022;-85
2021/04/25 09:40:26;;;;;;;16.13;7.63;;;15.40;79.50;;;;;;5015780;28;20025;-87
2021/04/25 09:43:06;;;;;;;;;;;15.50;78.60;;;;;;5015054;28;20069;-86
2021/04/25 09:45:36;;;;;;;11.45;6.82;;;15.40;77.90;;;;;;5025970;28;20296;-87
2021/04/25 09:48:24;;;;;;;17.77;6.53;;;15.30;76.80;;;;;;5018023;28;20029;-86
2021/04/25 09:51:29;;;;;;;14.65;7.85;;;15.50;78.80;;;;;;5017584;28;20037;-86
2021/04/25 09:53:54;;;;;;;11.95;6.72;;;15.80;78.00;;;;;;4920406;29;20147;-87
2021/04/25 09:56:23;;;;;;;14.32;7.35;;;15.80;78.00;;;;;;4920059;29;20466;-87
2021/04/25 09:58:58;;;;;;;13.68;7.18;;;15.90;78.50;;;;;;4977406;28;20029;-87
2021/04/25 10:01:40;;;;;;;20.17;7.45;;;16.00;77.30;;;;;;5017395;28;20029;-87
2021/04/25 10:04:25;;;;;;;14.18;7.68;;;16.00;76.90;;;;;;5017392;28;20485;-87
2021/04/25 10:06:54;;;;;;;16.23;7.65;;;16.30;76.10;;;;;;5017348;28;20072;-87
2021/04/25 10:09:20;;;;;;;13.07;7.30;;;16.30;75.40;;;;;;5017174;28;20456;-87
2021/04/25 10:11:52;;;;;;;11.18;6.82;;;16.40;76.10;;;;;;5017209;28;20021;-87
2021/04/25 10:14:19;;;;;;;11.80;6.50;;;16.30;75.40;;;;;;5035017;28;20068;-87
2021/04/25 10:16:45;;;;;;;13.27;7.57;;;16.50;73.80;;;;;;5017111;28;20113;-86
2021/04/25 10:19:11;;;;;;;11.55;7.38;;;16.50;74.30;;;;;;5035191;28;20049;-87
2021/04/25 10:21:38;;;;;;;17.27;6.82;;;16.70;73.70;;;;;;5016915;28;20029;-88
2021/04/25 10:24:08;;;;;;;12.90;6.40;;;16.70;74.20;;;;;;5016802;28;20033;-87
2021/04/25 10:26:37;;;;;;;13.10;7.07;;;16.80;73.50;;;;;;5017492;28;20025;-86
2021/04/25 10:29:10;;;;;;;14.25;8.40;;;16.70;70.30;;;;;;5034717;28;20029;-86
2021/04/25 10:31:37;;;;;;;12.25;7.10;;;16.80;69.30;;;;;;5016876;28;20481;-86
2021/04/25 10:34:19;;;;;;;12.95;6.53;;;17.10;69.70;;;;;;5016830;28;20026;-87
2021/04/25 10:36:45;;;;;;;12.27;6.68;;;17.50;70.80;;;;;;5034591;28;20532;-86
2021/04/25 10:39:44;;;;;;;13.18;7.03;;;17.60;68.90;;;;;;5016661;28;20049;-87
2021/04/25 10:44:59;;;;;;;9.77;6.15;;;17.80;67.40;;;;;;5034239;28;20037;-87
2021/04/25 10:47:26;;;;;;;9.30;5.90;;;18.10;67.70;;;;;;5034404;28;20029;-86
2021/04/25 10:49:54;;;;;;;9.38;5.95;;;18.30;67.00;;;;;;5034434;28;20040;-86
2021/04/25 10:52:26;;;;;;;8.82;5.82;;;18.10;67.10;;;;;;5016546;28;20025;-87
2021/04/25 10:55:19;;;;;;;9.90;6.38;;;18.20;66.20;;;;;;5034260;28;20503;-87
2021/04/25 10:57:59;;;;;;;12.55;6.20;;;18.00;66.70;;;;;;5004691;28;20037;-86
2021/04/25 11:00:36;;;;;;;8.75;5.32;;;18.60;65.50;;;;;;5016440;28;20021;-87
2021/04/25 11:03:03;;;;;;;10.48;6.45;;;18.80;64.70;;;;;;5016419;28;20025;-87
2021/04/25 11:05:38;;;;;;;14.88;6.10;;;18.50;62.40;;;;;;5016304;28;20043;-86
2021/04/25 11:08:30;;;;;;;10.15;5.95;;;19.00;62.50;;;;;;5016348;28;20026;-86
2021/04/25 11:11:10;;;;;;;8.48;5.30;;;19.10;61.30;;;;;;5016137;28;20124;-87
2021/04/25 11:13:37;;;;;;;9.20;5.50;;;19.00;61.20;;;;;;5016253;28;20469;-87
2021/04/25 11:16:07;;;;;;;8.40;5.60;;;19.00;60.20;;;;;;5016123;28;20564;-87
2021/04/25 11:18:44;;;;;;;10.13;5.45;;;19.20;59.80;;;;;;5016181;28;20511;-87
2021/04/25 11:21:38;;;;;;;8.43;5.05;;;19.40;59.70;;;;;;5016264;28;20029;-87
2021/04/25 11:24:04;;;;;;;10.50;5.32;;;19.50;59.20;;;;;;5033827;28;20503;-87
2021/04/25 11:26:36;;;;;;;9.20;5.07;;;19.70;59.20;;;;;;5033685;28;20025;-87
2021/04/25 11:29:09;;;;;;;7.72;4.38;;;19.90;58.20;;;;;;5015991;28;20520;-86
2021/04/25 11:31:47;;;;;;;9.60;5.37;;;20.20;57.10;;;;;;5033689;28;20025;-87
2021/04/25 11:34:27;;;;;;;11.27;5.20;;;20.30;56.10;;;;;;5015004;28;20021;-87
2021/04/25 11:37:07;;;;;;;9.50;4.35;;;20.20;56.70;;;;;;5033482;28;20025;-86
2021/04/25 11:39:46;;;;;;;8.65;4.38;;;19.80;56.60;;;;;;5015749;28;20037;-86
2021/04/25 11:42:36;;;;;;;7.28;4.30;;;19.90;56.00;;;;;;5033713;28;20033;-87
2021/04/25 11:45:08;;;;;;;11.65;4.90;;;19.90;56.10;;;;;;5033490;28;20045;-87
2021/04/25 11:47:35;;;;;;;8.63;4.70;;;20.30;56.60;;;;;;5015722;28;20481;-87
2021/04/25 11:50:03;;;;;;;8.40;4.18;;;20.20;55.10;;;;;;5015706;28;20029;-88
2021/04/25 11:52:32;;;;;;;8.23;4.32;;;20.20;55.20;;;;;;4999268;28;20061;-87
2021/04/25 11:55:18;;;;;;;6.80;4.55;;;20.40;56.10;;;;;;5033342;28;20378;-87
2021/04/25 11:57:47;;;;;;;9.38;4.80;;;20.50;54.40;;;;;;5015672;28;20031;-88
2021/04/25 12:00:14;;;;;;;7.32;4.25;;;20.40;55.30;;;;;;5015783;28;20033;-86
2021/04/25 12:02:49;;;;;;;10.23;4.50;;;20.30;55.40;;;;;;5015809;28;20025;-86
2021/04/25 12:05:29;;;;;;;6.63;3.80;;;20.40;54.70;;;;;;5015760;28;20505;-87
2021/04/25 12:07:57;;;;;;;7.10;3.85;;;21.10;63.50;;;;;;5015741;28;20028;-87
2021/04/25 12:10:32;;;;;;;11.43;4.30;;;21.20;60.20;;;;;;5015447;28;20500;-87
2021/04/25 12:13:17;;;;;;;6.97;4.70;;;21.30;59.40;;;;;;5015446;28;20034;-87
2021/04/25 12:15:43;;;;;;;;;;;21.70;52.90;;;;;;5016268;28;20079;-87
2021/04/25 12:18:09;;;;;;;8.20;4.65;;;21.70;51.80;;;;;;5015448;28;20325;-88
2021/04/25 12:21:03;;;;;;;6.40;4.25;;;21.70;51.20;;;;;;5015373;28;20021;-87
2021/04/25 12:23:34;;;;;;;4.53;3.22;;;22.10;50.10;;;;;;5012700;28;20041;-87
2021/04/25 12:26:08;;;;;;;7.53;3.58;;;22.30;50.50;;;;;;5033373;28;20543;-87
2021/04/25 12:28:35;;;;;;;;;;;21.40;50.60;;;;;;5034089;28;20045;-87
2021/04/25 12:31:01;;;;;;;7.70;3.90;;;21.90;49.90;;;;;;5032836;28;20029;-88
2021/04/25 12:33:43;;;;;;;10.30;3.75;;;22.40;47.80;;;;;;5015236;28;20660;-87
2021/04/25 12:36:12;;;;;;;9.88;3.65;;;22.70;47.50;;;;;;5015278;28;20029;-87
2021/04/25 12:38:39;;;;;;;7.57;3.80;;;22.20;48.20;;;;;;5015244;28;20045;-88
2021/04/25 12:41:14;;;;;;;6.88;3.47;;;22.50;48.00;;;;;;5032906;28;20070;-88
2021/04/25 12:43:45;;;;;;;8.98;3.67;;;22.70;48.00;;;;;;5015271;28;20477;-88
2021/04/25 12:46:20;;;;;;;6.18;3.28;;;22.80;46.80;;;;;;5034846;28;20045;-87
2021/04/25 12:48:53;;;;;;;6.40;3.15;;;22.40;47.40;;;;;;5018980;28;20022;-87
2021/04/25 12:51:20;;;;;;;8.18;3.35;;;22.00;47.50;;;;;;5036334;28;20121;-87
2021/04/25 12:53:58;;;;;;;6.50;3.17;;;22.10;47.20;;;;;;5018914;28;20025;-87
2021/04/25 12:56:30;;;;;;;6.43;3.30;;;21.80;46.80;;;;;;5018774;28;20472;-88